Terminal Aerodrome Forecast
Issued by NWS

Home | Current Version | Previous Version | Text Only | Print | Product List | Glossary On
Versions: 1 2 3 4 5 6 7 8 9 10 11 12 13 14 15 16 17
000
FTUS43 KLSX 011100
TAFCPS
TAF
KCPS 011125Z 0112/0212 12004KT P6SM FEW250
     FM011600 15007KT P6SM SCT050 BKN250
     FM020000 13003KT P6SM SCT040 BKN120
     FM020600 VRB03KT P6SM VCTS BKN040CB=

USA.gov is the U.S. government's official web portal to all federal, state and local government web resources and services.